createdAt,value
2023-05-02T00:00:44.727Z,850.60
2023-05-02T00:01:44.713Z,849.10
2023-05-02T00:02:44.811Z,837.60
2023-05-02T00:03:44.755Z,845.80
2023-05-02T00:04:44.684Z,853.50
2023-05-02T00:05:44.654Z,857.80
2023-05-02T00:06:44.699Z,851.90
2023-05-02T00:07:44.623Z,856.70
2023-05-02T00:08:44.618Z,849.40
2023-05-02T00:09:44.623Z,845.50
2023-05-02T00:10:44.613Z,853.40
2023-05-02T00:11:44.621Z,844.60
2023-05-02T00:12:44.571Z,838.20
2023-05-02T00:13:44.541Z,854.10
2023-05-02T00:14:44.551Z,845.60
2023-05-02T00:15:44.550Z,848.70
2023-05-02T00:16:44.631Z,843.80
2023-05-02T00:17:44.595Z,849.90
2023-05-02T00:18:44.489Z,843.60
2023-05-02T00:19:44.482Z,854.10
2023-05-02T00:20:44.460Z,853.30
2023-05-02T00:21:44.482Z,854.30
2023-05-02T00:22:44.451Z,858.00
2023-05-02T00:23:44.430Z,856.10
2023-05-02T00:24:44.423Z,856.20
2023-05-02T00:25:44.425Z,858.40
2023-05-02T00:26:44.462Z,857.30
2023-05-02T00:27:44.396Z,851.10
2023-05-02T00:28:44.380Z,860.60
2023-05-02T00:29:44.377Z,858.90
2023-05-02T00:30:44.394Z,856.70
2023-05-02T00:31:44.413Z,843.40
2023-05-02T00:32:44.379Z,850.70
2023-05-02T00:33:44.339Z,843.30
2023-05-02T00:34:44.334Z,842.40
2023-05-02T00:35:44.323Z,832.90
2023-05-02T00:36:44.314Z,829.10
2023-05-02T00:37:44.292Z,825.30
2023-05-02T00:38:44.254Z,831.70
2023-05-02T00:39:44.246Z,836.50
2023-05-02T00:40:44.226Z,831.90
2023-05-02T00:41:44.277Z,828.00
2023-05-02T00:42:44.211Z,827.10
2023-05-02T00:43:44.231Z,824.90
2023-05-02T00:44:44.184Z,833.10
2023-05-02T00:45:44.196Z,825.60
2023-05-02T00:46:44.265Z,818.20
2023-05-02T00:47:44.206Z,815.40
2023-05-02T00:48:44.156Z,807.10
2023-05-02T00:49:44.142Z,811.70
2023-05-02T00:50:44.115Z,813.00
2023-05-02T00:51:44.152Z,817.00
2023-05-02T00:52:44.098Z,820.10
2023-05-02T00:53:44.117Z,801.00
2023-05-02T00:54:44.107Z,800.00
2023-05-02T00:55:44.067Z,796.10
2023-05-02T00:56:44.106Z,803.50
2023-05-02T00:57:44.089Z,798.60
2023-05-02T00:58:44.054Z,798.10
2023-05-02T00:59:44.050Z,794.80
2023-05-02T01:00:44.037Z,792.30
2023-05-02T01:01:44.117Z,789.80
2023-05-02T01:02:44.142Z,776.20
2023-05-02T01:03:44.038Z,780.60
2023-05-02T01:04:43.962Z,785.50
2023-05-02T01:05:43.968Z,795.10
2023-05-02T01:06:44.014Z,789.40
2023-05-02T01:07:43.958Z,782.60
2023-05-02T01:08:43.920Z,794.60
2023-05-02T01:09:43.931Z,799.10
2023-05-02T01:10:43.908Z,789.10
2023-05-02T01:11:43.933Z,793.90
2023-05-02T01:12:43.881Z,797.20
2023-05-02T01:13:43.867Z,792.80
2023-05-02T01:14:43.847Z,790.90
2023-05-02T01:15:43.896Z,787.80
2023-05-02T01:16:43.988Z,784.70
2023-05-02T01:17:43.863Z,781.80
2023-05-02T01:18:43.803Z,765.70
2023-05-02T01:19:43.787Z,773.10
2023-05-02T01:20:43.779Z,769.40
2023-05-02T01:21:43.834Z,775.00
2023-05-02T01:22:43.777Z,772.70
2023-05-02T01:23:43.744Z,779.10
2023-05-02T01:24:43.757Z,777.10
2023-05-02T01:25:43.729Z,777.20
2023-05-02T01:26:43.750Z,768.40
2023-05-02T01:27:43.735Z,767.90
2023-05-02T01:28:43.706Z,772.80
2023-05-02T01:29:43.680Z,761.40
2023-05-02T01:30:43.679Z,758.30
2023-05-02T01:31:43.833Z,758.00
2023-05-02T01:32:43.678Z,766.00
2023-05-02T01:33:43.654Z,751.50
2023-05-02T01:34:43.669Z,754.60
2023-05-02T01:35:43.631Z,754.80
2023-05-02T01:36:43.658Z,769.10
2023-05-02T01:37:43.607Z,770.90
2023-05-02T01:38:43.600Z,765.00
2023-05-02T01:39:43.582Z,759.60
2023-05-02T01:40:43.573Z,764.00
2023-05-02T01:41:43.594Z,757.60
2023-05-02T01:42:43.580Z,761.30
2023-05-02T01:43:43.549Z,762.20
2023-05-02T01:44:43.550Z,768.80
2023-05-02T01:45:43.493Z,752.00
2023-05-02T01:46:43.572Z,764.60
2023-05-02T01:47:43.545Z,751.70
2023-05-02T01:48:43.466Z,775.30
2023-05-02T01:49:43.479Z,762.20
2023-05-02T01:50:43.433Z,768.10
2023-05-02T01:51:43.509Z,757.60
2023-05-02T01:52:43.416Z,764.60
2023-05-02T01:53:43.425Z,767.30
2023-05-02T01:54:43.414Z,764.10
2023-05-02T01:55:43.403Z,760.60
2023-05-02T01:56:43.455Z,766.70
2023-05-02T01:57:43.415Z,772.50
2023-05-02T01:58:43.362Z,770.20
2023-05-02T01:59:43.385Z,760.80
2023-05-02T02:00:43.386Z,766.40
2023-05-02T02:01:43.602Z,771.50
2023-05-02T02:02:43.337Z,762.50
2023-05-02T02:03:43.371Z,769.90
2023-05-02T02:04:43.389Z,772.80
2023-05-02T02:05:43.308Z,778.70
2023-05-02T02:06:43.332Z,780.20
2023-05-02T02:07:43.268Z,760.90
2023-05-02T02:08:43.250Z,774.30
2023-05-02T02:09:43.259Z,777.10
2023-05-02T02:10:43.234Z,764.50
2023-05-02T02:11:43.271Z,769.50
2023-05-02T02:12:43.219Z,770.00
2023-05-02T02:13:43.219Z,763.00
2023-05-02T02:14:43.190Z,769.90
2023-05-02T02:15:43.181Z,770.10
2023-05-02T02:16:43.227Z,767.20
2023-05-02T02:17:43.170Z,771.60
2023-05-02T02:18:43.136Z,769.70
2023-05-02T02:19:43.123Z,779.30
2023-05-02T02:20:43.132Z,766.40
2023-05-02T02:21:43.151Z,770.70
2023-05-02T02:22:43.134Z,770.40
2023-05-02T02:23:43.092Z,780.50
2023-05-02T02:24:43.081Z,769.80
2023-05-02T02:25:43.101Z,767.40
2023-05-02T02:26:43.088Z,783.00
2023-05-02T02:27:43.049Z,774.30
2023-05-02T02:28:43.038Z,771.50
2023-05-02T02:29:43.053Z,780.90
2023-05-02T02:30:43.054Z,782.60
2023-05-02T02:31:43.039Z,782.00
2023-05-02T02:32:42.992Z,781.90
2023-05-02T02:33:42.955Z,781.60
2023-05-02T02:34:42.973Z,773.80
2023-05-02T02:35:42.934Z,776.60
2023-05-02T02:36:42.966Z,777.80
2023-05-02T02:37:42.919Z,782.00
2023-05-02T02:38:42.922Z,789.90
2023-05-02T02:39:42.895Z,789.60
2023-05-02T02:40:42.893Z,778.90
2023-05-02T02:41:43.074Z,790.20
2023-05-02T02:42:42.880Z,797.40
2023-05-02T02:43:42.890Z,797.40
2023-05-02T02:44:42.819Z,797.20
2023-05-02T02:45:42.819Z,795.20
2023-05-02T02:46:42.942Z,786.00
2023-05-02T02:47:42.941Z,782.70
2023-05-02T02:48:42.806Z,774.60
2023-05-02T02:49:42.794Z,781.00
2023-05-02T02:50:42.790Z,775.30
2023-05-02T02:51:42.762Z,763.20
2023-05-02T02:52:42.811Z,777.30
2023-05-02T02:53:42.754Z,791.60
2023-05-02T02:54:42.717Z,769.70
2023-05-02T02:55:42.731Z,770.30
2023-05-02T02:56:42.700Z,776.30
2023-05-02T02:57:42.730Z,773.20
2023-05-02T02:58:42.688Z,773.70
2023-05-02T02:59:42.674Z,771.90
2023-05-02T03:00:42.662Z,779.00
2023-05-02T03:01:42.659Z,777.50
2023-05-02T03:02:42.739Z,784.70
2023-05-02T03:03:42.647Z,784.70
2023-05-02T03:04:42.619Z,776.30
2023-05-02T03:05:42.602Z,768.60
2023-05-02T03:06:42.692Z,776.10
2023-05-02T03:07:42.660Z,773.20
2023-05-02T03:08:42.570Z,771.20
2023-05-02T03:09:42.577Z,772.10
2023-05-02T03:10:42.561Z,783.70
2023-05-02T03:11:42.532Z,777.90
2023-05-02T03:12:42.568Z,776.00
2023-05-02T03:13:42.487Z,768.50
2023-05-02T03:14:42.491Z,764.40
2023-05-02T03:15:42.500Z,773.50
2023-05-02T03:16:42.545Z,763.20
2023-05-02T03:17:42.582Z,770.00
2023-05-02T03:18:42.482Z,768.20
2023-05-02T03:19:42.513Z,767.50
2023-05-02T03:20:42.441Z,759.50
2023-05-02T03:21:42.426Z,763.00
2023-05-02T03:22:42.455Z,458.40
2023-05-02T03:23:42.419Z,546.10
2023-05-02T03:24:42.394Z,498.00
2023-05-02T03:25:42.380Z,781.60
2023-05-02T03:26:42.371Z,776.30
2023-05-02T03:27:42.393Z,774.50
2023-05-02T03:28:42.372Z,772.70
2023-05-02T03:29:42.338Z,773.30
2023-05-02T03:30:42.324Z,765.30
2023-05-02T03:31:42.424Z,772.90
2023-05-02T03:32:42.376Z,760.00
2023-05-02T03:33:42.281Z,758.20
2023-05-02T03:34:42.291Z,755.10
2023-05-02T03:35:42.251Z,765.10
2023-05-02T03:36:42.242Z,767.70
2023-05-02T03:37:42.282Z,773.80
2023-05-02T03:38:42.252Z,764.00
2023-05-02T03:39:42.230Z,757.30
2023-05-02T03:40:42.221Z,773.50
2023-05-02T03:41:42.175Z,765.70
2023-05-02T03:42:42.207Z,767.30
2023-05-02T03:43:42.148Z,408.70
2023-05-02T03:44:42.141Z,767.60
2023-05-02T03:45:42.157Z,768.40
2023-05-02T03:46:42.202Z,755.90
2023-05-02T03:47:42.197Z,473.90
2023-05-02T03:48:42.151Z,731.70
2023-05-02T03:49:42.117Z,792.10
2023-05-02T03:50:42.085Z,771.60
2023-05-02T03:51:42.080Z,776.40
2023-05-02T03:52:42.106Z,787.60
2023-05-02T03:53:42.086Z,783.10
2023-05-02T03:54:42.073Z,777.00
2023-05-02T03:55:42.051Z,778.40
2023-05-02T03:56:42.906Z,787.00
2023-05-02T03:57:42.047Z,789.40
2023-05-02T03:58:42.012Z,781.70
2023-05-02T03:59:41.973Z,790.30
2023-05-02T04:00:41.998Z,785.50
2023-05-02T04:01:42.000Z,779.60
2023-05-02T04:02:42.083Z,773.70
2023-05-02T04:03:41.996Z,759.00
2023-05-02T04:04:42.048Z,555.10
2023-05-02T04:05:41.917Z,780.50
2023-05-02T04:06:41.965Z,523.00
2023-05-02T04:07:41.933Z,343.90
2023-05-02T04:08:41.888Z,196.30
2023-05-02T04:09:41.891Z,790.30
2023-05-02T04:10:41.846Z,781.80
2023-05-02T04:11:41.857Z,778.10
2023-05-02T04:12:41.833Z,782.20
2023-05-02T04:13:41.863Z,769.00
2023-05-02T04:14:41.832Z,777.50
2023-05-02T04:15:41.798Z,769.50
2023-05-02T04:16:41.814Z,772.10
2023-05-02T04:17:41.813Z,765.40
2023-05-02T04:18:41.811Z,775.50
2023-05-02T04:19:41.740Z,783.70
2023-05-02T04:20:41.754Z,779.60
2023-05-02T04:21:41.738Z,421.30
2023-05-02T04:22:41.749Z,423.30
2023-05-02T04:23:41.763Z,484.10
2023-05-02T04:24:41.709Z,814.70
2023-05-02T04:25:41.691Z,818.10
2023-05-02T04:26:41.697Z,762.00
2023-05-02T04:27:41.677Z,790.70
2023-05-02T04:28:41.687Z,810.70
2023-05-02T04:29:41.635Z,791.90
2023-05-02T04:30:41.673Z,780.30
2023-05-02T04:31:41.611Z,790.90
2023-05-02T04:32:41.632Z,809.30
2023-05-02T04:33:41.633Z,824.80
2023-05-02T04:34:41.606Z,761.40
2023-05-02T04:35:41.576Z,802.40
2023-05-02T04:36:41.585Z,797.30
2023-05-02T04:37:41.557Z,809.60
2023-05-02T04:38:41.600Z,806.70
2023-05-02T04:39:41.564Z,802.80
2023-05-02T04:40:41.544Z,828.80
2023-05-02T04:41:41.524Z,827.20
2023-05-02T04:42:41.491Z,829.90
2023-05-02T04:43:41.525Z,836.90
2023-05-02T04:44:41.487Z,844.40
2023-05-02T04:45:41.474Z,850.70
2023-05-02T04:46:41.505Z,836.00
2023-05-02T04:47:41.528Z,832.80
2023-05-02T04:48:41.469Z,843.60
2023-05-02T04:49:41.406Z,835.60
2023-05-02T04:50:41.410Z,827.80
2023-05-02T04:51:41.383Z,841.90
2023-05-02T04:52:41.421Z,849.90
2023-05-02T04:53:41.417Z,847.60
2023-05-02T04:54:41.354Z,867.20
2023-05-02T04:55:41.363Z,836.50
2023-05-02T04:56:41.345Z,834.70
2023-05-02T04:57:41.330Z,846.20
2023-05-02T04:58:41.373Z,867.90
2023-05-02T04:59:41.316Z,904.90
2023-05-02T05:00:41.301Z,883.60
2023-05-02T05:01:41.353Z,876.10
2023-05-02T05:02:41.321Z,866.20
2023-05-02T05:03:41.415Z,876.70
2023-05-02T05:04:41.263Z,897.40
2023-05-02T05:05:41.261Z,789.70
2023-05-02T05:06:41.278Z,799.50
2023-05-02T05:07:41.225Z,746.80
2023-05-02T05:08:41.269Z,574.90
2023-05-02T05:09:41.209Z,515.90
2023-05-02T05:10:41.192Z,618.50
2023-05-02T05:11:41.151Z,508.30
2023-05-02T05:12:41.160Z,428.30
2023-05-02T05:13:41.328Z,468.20
2023-05-02T05:14:41.139Z,450.10
2023-05-02T05:15:41.125Z,303.60
2023-05-02T05:16:41.234Z,353.60
2023-05-02T05:17:41.132Z,348.10
2023-05-02T05:18:41.131Z,437.50
2023-05-02T05:19:41.146Z,487.60
2023-05-02T05:20:41.081Z,405.10
2023-05-02T05:21:41.067Z,387.70
2023-05-02T05:22:41.066Z,326.20
2023-05-02T05:23:41.033Z,420.00
2023-05-02T05:24:41.052Z,376.70
2023-05-02T05:25:41.527Z,320.70
2023-05-02T05:26:40.997Z,318.50
2023-05-02T05:27:41.143Z,83.90
2023-05-02T05:28:40.961Z,115.80
2023-05-02T05:29:41.021Z,107.10
2023-05-02T05:30:40.964Z,110.00
2023-05-02T05:31:40.995Z,107.40
2023-05-02T05:32:41.045Z,108.70
2023-05-02T05:33:40.994Z,117.60
2023-05-02T05:34:40.960Z,101.20
2023-05-02T05:35:40.901Z,125.50
2023-05-02T05:36:40.894Z,123.00
2023-05-02T05:37:40.859Z,148.20
2023-05-02T05:38:40.868Z,120.30
2023-05-02T05:39:40.916Z,96.80
2023-05-02T05:40:40.842Z,100.80
2023-05-02T05:41:40.832Z,83.60
2023-05-02T05:42:40.815Z,90.00
2023-05-02T05:43:40.846Z,78.70
2023-05-02T05:44:40.876Z,75.90
2023-05-02T05:45:40.797Z,105.20
2023-05-02T05:46:40.821Z,99.10
2023-05-02T05:47:40.872Z,87.30
2023-05-02T05:48:40.760Z,100.20
2023-05-02T05:49:40.777Z,102.70
2023-05-02T05:50:40.731Z,68.50
2023-05-02T05:51:40.728Z,92.40
2023-05-02T05:52:40.705Z,99.60
2023-05-02T05:53:40.719Z,83.60
2023-05-02T05:54:40.743Z,74.20
2023-05-02T05:55:42.181Z,112.90
2023-05-02T05:56:40.685Z,73.50
2023-05-02T05:57:40.660Z,89.80
2023-05-02T05:58:40.644Z,71.90
2023-05-02T05:59:40.680Z,87.90
2023-05-02T06:00:40.624Z,63.00
2023-05-02T06:01:40.599Z,90.10
2023-05-02T06:02:40.719Z,109.90
2023-05-02T06:03:40.753Z,153.10
2023-05-02T06:04:40.675Z,106.90
2023-05-02T06:05:40.569Z,156.00
2023-05-02T06:06:40.612Z,109.10
2023-05-02T06:07:40.539Z,104.00
2023-05-02T06:08:40.532Z,122.90
2023-05-02T06:09:40.545Z,111.10
2023-05-02T06:10:40.515Z,131.10
2023-05-02T06:11:40.493Z,149.20
2023-05-02T06:12:40.527Z,131.30
2023-05-02T06:13:40.458Z,127.90
2023-05-02T06:14:40.494Z,125.00
2023-05-02T06:15:40.500Z,116.00
2023-05-02T06:16:40.544Z,107.60
2023-05-02T06:17:40.511Z,117.60
2023-05-02T06:18:40.403Z,112.10
2023-05-02T06:19:40.451Z,95.50
2023-05-02T06:20:40.400Z,93.30
2023-05-02T06:21:40.398Z,87.70
2023-05-02T06:22:40.403Z,71.60
2023-05-02T06:23:41.233Z,80.80
2023-05-02T06:24:40.397Z,451.10
2023-05-02T06:25:40.326Z,244.60
2023-05-02T06:26:40.379Z,258.70
2023-05-02T06:27:40.373Z,95.70
2023-05-02T06:28:40.331Z,132.10
2023-05-02T06:29:40.361Z,106.90
2023-05-02T06:30:40.286Z,109.30
2023-05-02T06:31:40.311Z,84.60
2023-05-02T06:32:40.270Z,78.30
2023-05-02T06:33:40.259Z,75.70
2023-05-02T06:34:40.270Z,62.70
2023-05-02T06:35:40.246Z,99.80
2023-05-02T06:36:40.219Z,69.20
2023-05-02T06:37:40.229Z,83.20
2023-05-02T06:38:40.178Z,67.70
2023-05-02T06:39:40.217Z,68.20
2023-05-02T06:40:40.159Z,54.40
2023-05-02T06:41:40.170Z,77.90
2023-05-02T06:42:40.155Z,77.80
2023-05-02T06:43:40.145Z,116.80
2023-05-02T06:44:40.153Z,99.10
2023-05-02T06:45:40.126Z,86.40
2023-05-02T06:46:40.162Z,64.20
2023-05-02T06:47:40.163Z,63.80
2023-05-02T06:48:40.085Z,63.40
2023-05-02T06:49:40.114Z,64.10
2023-05-02T06:50:40.062Z,58.50
2023-05-02T06:51:40.066Z,57.30
2023-05-02T06:52:40.041Z,72.90
2023-05-02T06:53:40.056Z,67.40
2023-05-02T06:54:40.180Z,49.60
2023-05-02T06:55:39.992Z,59.20
2023-05-02T06:56:39.987Z,54.80
2023-05-02T06:57:40.022Z,76.40
2023-05-02T06:58:39.995Z,56.50
2023-05-02T06:59:39.977Z,80.50
2023-05-02T07:00:40.013Z,79.50
2023-05-02T07:01:39.995Z,60.50
2023-05-02T07:02:39.963Z,75.60
2023-05-02T07:03:39.998Z,53.50
2023-05-02T07:04:39.989Z,49.90
2023-05-02T07:05:39.934Z,44.70
2023-05-02T07:06:39.890Z,85.20
2023-05-02T07:07:39.872Z,65.90
2023-05-02T07:08:39.837Z,49.90
2023-05-02T07:09:39.873Z,70.50
2023-05-02T07:10:39.885Z,58.70
2023-05-02T07:11:39.837Z,68.40
2023-05-02T07:12:39.831Z,86.20
2023-05-02T07:13:39.827Z,53.50
2023-05-02T07:14:39.786Z,62.40
2023-05-02T07:15:39.792Z,78.90
2023-05-02T07:16:39.832Z,78.10
2023-05-02T07:17:39.844Z,72.70
2023-05-02T07:18:39.748Z,261.40
2023-05-02T07:19:39.748Z,200.20
2023-05-02T07:20:39.758Z,220.30
2023-05-02T07:21:39.694Z,351.30
2023-05-02T07:22:39.691Z,271.20
2023-05-02T07:23:39.703Z,458.20
2023-05-02T07:24:39.690Z,245.00
2023-05-02T07:25:39.701Z,264.80
2023-05-02T07:26:39.676Z,200.50
2023-05-02T07:27:39.632Z,197.30
2023-05-02T07:28:39.629Z,175.30
2023-05-02T07:29:39.630Z,46.40
2023-05-02T07:30:39.660Z,77.10
2023-05-02T07:31:39.648Z,40.00
2023-05-02T07:32:39.661Z,42.30
2023-05-02T07:33:39.560Z,58.40
2023-05-02T07:34:39.548Z,47.10
2023-05-02T07:35:39.597Z,76.10
2023-05-02T07:36:39.526Z,58.00
2023-05-02T07:37:39.531Z,40.80
2023-05-02T07:38:39.515Z,40.10
2023-05-02T07:39:39.531Z,29.60
2023-05-02T07:40:39.539Z,31.30
2023-05-02T07:41:39.511Z,42.50
2023-05-02T07:42:39.482Z,61.70
2023-05-02T07:43:39.518Z,46.00
2023-05-02T07:44:39.473Z,48.00
2023-05-02T07:45:39.486Z,44.50
2023-05-02T07:46:39.524Z,49.60
2023-05-02T07:47:39.468Z,41.80
2023-05-02T07:48:39.421Z,46.60
2023-05-02T07:49:39.421Z,53.80
2023-05-02T07:50:39.429Z,69.00
2023-05-02T07:51:39.426Z,61.40
2023-05-02T07:52:39.380Z,71.90
2023-05-02T07:53:39.353Z,187.40
2023-05-02T07:54:39.348Z,424.80
2023-05-02T07:55:39.375Z,500.10
2023-05-02T07:56:39.367Z,389.90
2023-05-02T07:57:39.326Z,406.40
2023-05-02T07:58:39.302Z,353.70
2023-05-02T07:59:39.303Z,192.80
2023-05-02T08:00:39.340Z,248.60
2023-05-02T08:01:39.277Z,334.50
2023-05-02T08:02:39.294Z,423.90
2023-05-02T08:03:39.391Z,389.60
2023-05-02T08:04:39.279Z,302.40
2023-05-02T08:05:39.261Z,276.70
2023-05-02T08:06:39.290Z,318.80
2023-05-02T08:07:39.225Z,255.20
2023-05-02T08:08:39.180Z,408.00
2023-05-02T08:09:39.178Z,412.30
2023-05-02T08:10:39.213Z,141.30
2023-05-02T08:11:39.167Z,247.90
2023-05-02T08:12:39.140Z,114.80
2023-05-02T08:13:39.155Z,128.00
2023-05-02T08:14:39.139Z,205.70
2023-05-02T08:15:39.229Z,47.00
2023-05-02T08:16:39.174Z,48.10
2023-05-02T08:17:39.151Z,48.40
2023-05-02T08:18:39.081Z,41.10
2023-05-02T08:19:39.076Z,50.90
2023-05-02T08:20:39.096Z,58.10
2023-05-02T08:21:39.064Z,65.90
2023-05-02T08:22:39.052Z,65.80
2023-05-02T08:23:39.012Z,59.00
2023-05-02T08:24:39.018Z,52.90
2023-05-02T08:25:39.038Z,53.50
2023-05-02T08:26:38.974Z,58.80
2023-05-02T08:27:38.984Z,51.60
2023-05-02T08:28:38.993Z,51.10
2023-05-02T08:29:38.968Z,51.00
2023-05-02T08:30:38.962Z,43.30
2023-05-02T08:31:39.000Z,44.50
2023-05-02T08:32:38.935Z,40.90
2023-05-02T08:33:38.900Z,36.50
2023-05-02T08:34:38.905Z,41.60
2023-05-02T08:35:38.890Z,64.20
2023-05-02T08:36:38.912Z,46.70
2023-05-02T08:37:38.865Z,49.70
2023-05-02T08:38:38.839Z,34.00
2023-05-02T08:39:38.848Z,39.60
2023-05-02T08:40:42.804Z,37.60
2023-05-02T08:41:38.873Z,38.20
2023-05-02T08:42:38.798Z,31.80
2023-05-02T08:43:38.803Z,43.40
2023-05-02T08:44:38.796Z,59.80
2023-05-02T08:45:38.785Z,68.10
2023-05-02T08:46:38.826Z,60.30
2023-05-02T08:47:38.808Z,59.20
2023-05-02T08:48:38.767Z,78.00
2023-05-02T08:49:38.727Z,57.20
2023-05-02T08:50:38.713Z,65.40
2023-05-02T08:51:40.339Z,118.10
2023-05-02T08:52:38.707Z,162.00
2023-05-02T08:53:38.699Z,173.80
2023-05-02T08:54:38.721Z,55.60
2023-05-02T08:55:38.658Z,63.20
2023-05-02T08:56:38.686Z,57.30
2023-05-02T08:57:38.621Z,61.50
2023-05-02T08:58:38.613Z,72.00
2023-05-02T08:59:38.625Z,63.30
2023-05-02T09:00:38.602Z,70.40
2023-05-02T09:01:38.734Z,60.60
2023-05-02T09:02:38.661Z,70.70
2023-05-02T09:03:38.593Z,89.40
2023-05-02T09:04:38.748Z,109.50
2023-05-02T09:05:38.573Z,90.40
2023-05-02T09:06:38.624Z,47.30
2023-05-02T09:07:38.533Z,48.50
2023-05-02T09:08:38.556Z,59.30
2023-05-02T09:09:38.499Z,46.20
2023-05-02T09:10:38.502Z,51.70
2023-05-02T09:11:38.569Z,52.60
2023-05-02T09:12:38.484Z,68.70
2023-05-02T09:13:38.462Z,48.70
2023-05-02T09:14:38.449Z,48.80
2023-05-02T09:15:38.421Z,53.40
2023-05-02T09:16:38.514Z,57.60
2023-05-02T09:17:38.472Z,63.60
2023-05-02T09:18:38.384Z,67.50
2023-05-02T09:19:38.442Z,68.30
2023-05-02T09:20:38.374Z,178.80
2023-05-02T09:21:38.418Z,172.40
2023-05-02T09:22:38.353Z,194.50
2023-05-02T09:23:38.356Z,186.70
2023-05-02T09:24:38.356Z,50.00
2023-05-02T09:25:38.315Z,55.40
2023-05-02T09:26:38.338Z,45.30
2023-05-02T09:27:38.295Z,63.30
2023-05-02T09:28:38.314Z,71.10
2023-05-02T09:29:38.304Z,64.60
2023-05-02T09:30:38.295Z,233.50
2023-05-02T09:32:38.262Z,67.10
2023-05-02T09:33:38.225Z,115.80
2023-05-02T09:34:38.263Z,60.10
2023-05-02T09:35:38.208Z,103.70
2023-05-02T09:36:38.213Z,122.70
2023-05-02T09:37:38.180Z,117.20
2023-05-02T09:38:38.191Z,58.70
2023-05-02T09:39:38.205Z,180.60
2023-05-02T09:40:38.152Z,147.20
2023-05-02T09:41:38.131Z,151.90
2023-05-02T09:42:38.229Z,138.70
2023-05-02T09:43:38.123Z,92.60
2023-05-02T09:44:38.148Z,145.20
2023-05-02T09:45:38.114Z,59.10
2023-05-02T09:46:38.222Z,145.60
2023-05-02T09:47:38.241Z,61.20
2023-05-02T09:48:38.063Z,92.40
2023-05-02T09:49:38.055Z,120.30
2023-05-02T09:50:38.173Z,82.70
2023-05-02T09:51:38.043Z,89.10
2023-05-02T09:52:38.060Z,90.50
2023-05-02T09:53:38.021Z,95.80
2023-05-02T09:54:37.995Z,48.40
2023-05-02T09:55:37.970Z,46.20
2023-05-02T09:56:37.997Z,91.30
2023-05-02T09:57:38.036Z,61.00
2023-05-02T09:58:37.953Z,173.40
2023-05-02T09:59:37.940Z,64.10
2023-05-02T10:00:37.928Z,55.50
2023-05-02T10:01:38.000Z,45.30
2023-05-02T10:02:38.013Z,44.40
2023-05-02T10:03:38.041Z,58.20
2023-05-02T10:04:38.096Z,56.30
2023-05-02T10:05:37.920Z,155.40
2023-05-02T10:06:37.949Z,110.40
2023-05-02T10:07:37.909Z,120.50
2023-05-02T10:08:37.833Z,269.60
2023-05-02T10:09:37.840Z,346.60
2023-05-02T10:10:37.832Z,310.70
2023-05-02T10:11:37.811Z,290.40
2023-05-02T10:12:37.874Z,315.70
2023-05-02T10:13:37.795Z,300.80
2023-05-02T10:14:37.782Z,400.10
2023-05-02T10:15:37.850Z,363.20
2023-05-02T10:16:37.753Z,511.40
2023-05-02T10:17:37.831Z,398.40
2023-05-02T10:18:37.718Z,426.30
2023-05-02T10:19:37.721Z,433.90
2023-05-02T10:20:37.787Z,483.30
2023-05-02T10:21:37.683Z,385.10
2023-05-02T10:22:37.740Z,478.00
2023-05-02T10:23:37.678Z,510.00
2023-05-02T10:24:37.682Z,536.80
2023-05-02T10:25:37.683Z,551.60
2023-05-02T10:26:37.669Z,442.90
2023-05-02T10:27:37.686Z,222.30
2023-05-02T10:28:37.621Z,313.00
2023-05-02T10:29:37.642Z,370.70
2023-05-02T10:30:37.615Z,181.50
2023-05-02T10:31:37.765Z,132.10
2023-05-02T10:32:37.694Z,192.00
2023-05-02T10:33:37.570Z,206.80
2023-05-02T10:34:37.580Z,174.70
2023-05-02T10:35:37.539Z,311.40
2023-05-02T10:36:37.532Z,246.50
2023-05-02T10:37:37.578Z,240.70
2023-05-02T10:38:37.514Z,207.80
2023-05-02T10:39:38.356Z,255.20
2023-05-02T10:40:37.474Z,227.70
2023-05-02T10:41:37.477Z,483.00
2023-05-02T10:42:37.504Z,455.80
2023-05-02T10:43:37.476Z,578.10
2023-05-02T10:44:37.445Z,588.00
2023-05-02T10:45:37.451Z,505.70
2023-05-02T10:46:37.457Z,432.10
2023-05-02T10:47:37.456Z,492.10
2023-05-02T10:48:37.376Z,491.80
2023-05-02T10:49:37.412Z,435.50
2023-05-02T10:50:37.365Z,504.20
2023-05-02T10:51:37.354Z,512.90
2023-05-02T10:52:37.372Z,531.30
2023-05-02T10:53:37.327Z,410.20
2023-05-02T10:54:37.332Z,343.80
2023-05-02T10:55:37.317Z,398.50
2023-05-02T10:56:37.413Z,400.50
2023-05-02T10:57:37.295Z,296.80
2023-05-02T10:58:37.320Z,440.30
2023-05-02T10:59:37.282Z,407.90
2023-05-02T11:00:37.358Z,447.90
2023-05-02T11:01:37.243Z,277.80
2023-05-02T11:02:37.344Z,415.20
2023-05-02T11:03:37.280Z,259.90
2023-05-02T11:04:37.231Z,246.40
2023-05-02T11:05:37.240Z,260.50
2023-05-02T11:06:37.230Z,72.80
2023-05-02T11:07:37.211Z,68.30
2023-05-02T11:08:37.217Z,69.40
2023-05-02T11:09:37.156Z,37.10
2023-05-02T11:10:37.163Z,35.70
2023-05-02T11:11:37.137Z,47.00
2023-05-02T11:12:37.118Z,95.30
2023-05-02T11:13:37.166Z,103.30
2023-05-02T11:14:37.113Z,77.40
2023-05-02T11:15:37.070Z,38.60
2023-05-02T11:16:37.136Z,91.60
2023-05-02T11:17:37.098Z,89.20
2023-05-02T11:18:37.095Z,69.40
2023-05-02T11:19:37.044Z,90.00
2023-05-02T11:20:37.027Z,69.40
2023-05-02T11:21:37.020Z,62.20
2023-05-02T11:22:37.003Z,41.00
2023-05-02T11:23:37.070Z,43.70
2023-05-02T11:24:36.997Z,54.90
2023-05-02T11:25:36.983Z,73.10
2023-05-02T11:26:36.967Z,42.90
2023-05-02T11:27:36.989Z,67.30
2023-05-02T11:28:37.000Z,221.10
2023-05-02T11:29:36.932Z,59.30
2023-05-02T11:30:36.937Z,88.00
2023-05-02T11:31:36.924Z,300.00
2023-05-02T11:32:37.797Z,398.10
2023-05-02T11:33:37.094Z,396.90
2023-05-02T11:34:36.898Z,504.70
2023-05-02T11:35:36.894Z,498.90
2023-05-02T11:36:36.976Z,400.60
2023-05-02T11:37:36.838Z,491.40
2023-05-02T11:38:36.846Z,391.20
2023-05-02T11:39:36.838Z,448.20
2023-05-02T11:40:36.827Z,460.10
2023-05-02T11:41:36.803Z,567.10
2023-05-02T11:42:36.803Z,405.70
2023-05-02T11:43:36.766Z,408.40
2023-05-02T11:44:36.798Z,394.00
2023-05-02T11:45:36.738Z,240.80
2023-05-02T11:46:36.852Z,53.40
2023-05-02T11:47:36.751Z,44.60
2023-05-02T11:48:36.717Z,71.10
2023-05-02T11:49:36.768Z,212.50
2023-05-02T11:50:36.856Z,50.10
2023-05-02T11:51:36.680Z,33.10
2023-05-02T11:52:36.684Z,34.50
2023-05-02T11:53:36.674Z,44.20
2023-05-02T11:54:36.698Z,63.00
2023-05-02T11:55:36.629Z,210.80
2023-05-02T11:56:36.643Z,37.40
2023-05-02T11:57:36.609Z,36.50
2023-05-02T11:58:36.677Z,58.40
2023-05-02T11:59:36.706Z,99.10
2023-05-02T12:00:36.584Z,136.80
2023-05-02T12:01:36.594Z,102.30
2023-05-02T12:02:36.664Z,77.70
2023-05-02T12:03:36.698Z,49.30
2023-05-02T12:04:36.548Z,98.40
2023-05-02T12:05:36.572Z,44.60
2023-05-02T12:06:36.543Z,57.60
2023-05-02T12:07:36.535Z,80.90
2023-05-02T12:08:36.565Z,93.50
2023-05-02T12:09:36.494Z,39.00
2023-05-02T12:10:36.482Z,94.70
2023-05-02T12:11:36.456Z,35.70
2023-05-02T12:12:36.459Z,62.80
2023-05-02T12:13:36.455Z,122.20
2023-05-02T12:14:36.539Z,35.10
2023-05-02T12:15:36.433Z,77.10
2023-05-02T12:16:36.435Z,112.20
2023-05-02T12:17:36.415Z,91.60
2023-05-02T12:18:36.400Z,51.20
2023-05-02T12:19:36.423Z,58.80
2023-05-02T12:20:36.375Z,127.40
2023-05-02T12:21:36.385Z,61.70
2023-05-02T12:22:36.362Z,70.60
2023-05-02T12:23:37.537Z,54.00
2023-05-02T12:24:36.395Z,172.90
2023-05-02T12:25:36.322Z,43.50
2023-05-02T12:26:36.305Z,39.00
2023-05-02T12:27:36.281Z,40.00
2023-05-02T12:28:36.313Z,109.40
2023-05-02T12:29:36.276Z,75.40
2023-05-02T12:30:36.295Z,352.60
2023-05-02T12:31:36.296Z,221.60
2023-05-02T12:32:36.274Z,245.40
2023-05-02T12:33:36.293Z,382.70
2023-05-02T12:34:36.227Z,395.80
2023-05-02T12:35:36.204Z,450.40
2023-05-02T12:36:36.221Z,324.60
2023-05-02T12:37:36.184Z,432.90